Time;durP1;ratioP1;P1;durP2;ratioP2;P2;SDS_P1;SDS_P2;PMS_P1;PMS_P2;Temp;Humidity;BMP_temperature;BMP_pressure;BME280_temperature;BME280_humidity;BME280_pressure;Samples;Min_cycle;Max_cycle;Signal;HPM_P1;HPM_P2
2021/04/15 00:01:31;;;;;;;1.67;0.77;;;24.20;35.60;;;;;;5078022;28;20040;-61
2021/04/15 00:03:57;;;;;;;1.33;0.70;;;24.20;35.70;;;;;;5066982;28;20040;-60
2021/04/15 00:06:27;;;;;;;1.63;0.90;;;24.20;35.70;;;;;;5083562;28;20035;-60
2021/04/15 00:08:53;;;;;;;1.42;0.70;;;24.20;35.70;;;;;;5081559;28;20113;-60
2021/04/15 00:11:21;;;;;;;1.23;0.70;;;24.20;35.70;;;;;;5083828;28;20031;-61
2021/04/15 00:13:50;;;;;;;1.08;0.73;;;24.20;35.70;;;;;;5083198;28;20662;-60
2021/04/15 00:16:16;;;;;;;1.00;0.80;;;24.10;35.60;;;;;;5071130;28;20077;-60
2021/04/15 00:18:42;;;;;;;0.88;0.70;;;24.20;35.70;;;;;;5085308;28;20562;-61
2021/04/15 00:21:10;;;;;;;2.28;0.80;;;24.10;35.70;;;;;;5090856;28;20043;-60
2021/04/15 00:23:35;;;;;;;0.75;0.60;;;24.20;35.70;;;;;;5079423;28;20245;-60
2021/04/15 00:26:03;;;;;;;0.90;0.70;;;24.20;35.80;;;;;;5084171;28;20036;-59
2021/04/15 00:28:29;;;;;;;1.20;0.70;;;24.20;35.70;;;;;;5083412;28;20080;-60
2021/04/15 00:30:55;;;;;;;1.75;0.77;;;24.20;35.70;;;;;;5086242;28;20115;-60
2021/04/15 00:33:21;;;;;;;1.88;0.73;;;24.10;35.70;;;;;;5077212;28;20081;-60
2021/04/15 00:35:48;;;;;;;1.52;0.70;;;24.10;36.20;;;;;;5085271;28;20036;-59
2021/04/15 00:38:15;;;;;;;0.85;0.60;;;24.10;35.70;;;;;;5087308;28;20020;-60
2021/04/15 00:40:43;;;;;;;1.15;0.60;;;24.10;35.70;;;;;;5088270;28;20565;-60
2021/04/15 00:43:09;;;;;;;1.00;0.68;;;24.10;35.70;;;;;;5086285;28;20538;-60
2021/04/15 00:45:40;;;;;;;1.02;0.70;;;24.10;35.70;;;;;;5087616;28;20066;-60
2021/04/15 00:48:33;;;;;;;0.90;0.70;;;24.10;35.70;;;;;;5086979;28;20040;-60
2021/04/15 00:51:11;;;;;;;1.25;0.60;;;24.10;35.80;;;;;;5077477;28;20047;-61
2021/04/15 00:53:44;;;;;;;1.55;0.70;;;24.10;35.80;;;;;;5086222;28;20111;-60
2021/04/15 00:56:12;;;;;;;1.50;0.65;;;24.10;35.80;;;;;;5087234;28;20028;-61
2021/04/15 00:58:39;;;;;;;1.23;0.70;;;24.10;35.70;;;;;;5086987;28;20122;-60
2021/04/15 01:01:06;;;;;;;1.48;0.68;;;24.00;35.70;;;;;;5080601;28;20048;-60
2021/04/15 01:03:33;;;;;;;1.33;0.68;;;24.00;35.70;;;;;;5082092;28;20020;-60
2021/04/15 01:05:59;;;;;;;1.70;0.77;;;24.00;35.70;;;;;;5087522;28;20024;-60
2021/04/15 01:08:24;;;;;;;1.33;0.60;;;24.00;35.70;;;;;;5086430;28;20032;-60
2021/04/15 01:11:17;;;;;;;0.88;0.60;;;24.00;35.90;;;;;;5087209;28;20366;-60
2021/04/15 01:13:57;;;;;;;0.70;0.70;;;24.00;35.70;;;;;;5048506;28;20385;-60
2021/04/15 01:16:33;;;;;;;0.60;0.60;;;24.00;35.70;;;;;;5084182;28;20036;-59
2021/04/15 01:18:59;;;;;;;1.83;0.70;;;24.00;35.70;;;;;;5086326;28;20065;-60
2021/04/15 01:21:52;;;;;;;1.75;0.77;;;24.00;35.70;;;;;;5089651;28;20101;-60
2021/04/15 01:24:31;;;;;;;0.90;0.60;;;24.00;35.80;;;;;;5082057;28;20482;-60
2021/04/15 01:27:25;;;;;;;1.35;0.70;;;24.00;35.80;;;;;;5078907;28;20024;-62
2021/04/15 01:30:18;;;;;;;0.98;0.70;;;24.00;35.70;;;;;;5077307;28;20173;-61
2021/04/15 01:33:10;;;;;;;0.93;0.68;;;23.90;35.70;;;;;;5081979;28;20063;-61
2021/04/15 01:35:52;;;;;;;1.80;0.70;;;23.90;35.70;;;;;;5084448;28;20039;-61
2021/04/15 01:38:33;;;;;;;1.00;0.70;;;23.90;35.70;;;;;;5085158;28;20055;-60
2021/04/15 01:41:17;;;;;;;1.02;0.60;;;23.90;35.70;;;;;;5086124;28;20488;-60
2021/04/15 01:43:54;;;;;;;1.38;0.70;;;23.90;35.70;;;;;;5085492;28;20048;-59
2021/04/15 01:46:25;;;;;;;0.70;0.60;;;23.90;35.70;;;;;;5085839;28;20038;-61
2021/04/15 01:48:53;;;;;;;1.00;0.80;;;23.90;35.70;;;;;;5086050;28;20046;-60
2021/04/15 01:51:30;;;;;;;1.10;0.70;;;23.90;35.70;;;;;;5083772;28;20728;-59
2021/04/15 01:54:15;;;;;;;1.45;0.70;;;23.90;35.70;;;;;;5072179;28;20184;-60
2021/04/15 01:57:05;;;;;;;2.05;0.80;;;23.90;35.80;;;;;;5085900;28;20043;-60
2021/04/15 01:59:33;;;;;;;;;;;23.80;35.70;;;;;;5086543;28;20039;-60
2021/04/15 02:02:14;;;;;;;0.70;0.60;;;23.90;35.80;;;;;;5083689;28;19923;-59
2021/04/15 02:04:46;;;;;;;0.65;0.60;;;23.80;35.80;;;;;;5084994;28;20031;-60
2021/04/15 02:07:16;;;;;;;1.05;0.60;;;23.80;35.70;;;;;;5086222;28;20059;-60
2021/04/15 02:09:45;;;;;;;1.83;0.90;;;23.80;35.70;;;;;;5084816;28;20032;-60
2021/04/15 02:12:16;;;;;;;1.10;0.73;;;23.80;35.80;;;;;;5085606;28;20059;-60
2021/04/15 02:14:46;;;;;;;0.95;0.60;;;23.80;35.80;;;;;;5082777;28;20766;-59
2021/04/15 02:17:13;;;;;;;0.60;0.60;;;23.80;35.80;;;;;;5080905;28;20020;-60
2021/04/15 02:19:48;;;;;;;1.55;0.70;;;23.80;35.80;;;;;;5081016;28;20146;-60
2021/04/15 02:22:23;;;;;;;0.90;0.60;;;23.80;36.40;;;;;;5085629;28;20035;-60
2021/04/15 02:25:07;;;;;;;0.75;0.60;;;23.70;35.80;;;;;;5081278;28;20040;-59
2021/04/15 02:27:49;;;;;;;1.08;0.70;;;23.80;35.80;;;;;;5085455;28;20055;-60
2021/04/15 02:30:18;;;;;;;0.70;0.60;;;23.70;35.80;;;;;;5085548;28;20477;-58
2021/04/15 02:33:04;;;;;;;1.08;0.60;;;23.70;35.80;;;;;;5071495;28;20032;-61
2021/04/15 02:35:34;;;;;;;0.63;0.57;;;23.70;35.80;;;;;;5086587;28;20040;-61
2021/04/15 02:38:01;;;;;;;1.00;0.73;;;23.70;35.80;;;;;;5085226;28;20040;-61
2021/04/15 02:40:35;;;;;;;0.52;0.50;;;23.70;35.80;;;;;;5085873;28;20050;-61
2021/04/15 02:43:17;;;;;;;0.88;0.60;;;23.70;35.80;;;;;;5084299;28;20124;-58
2021/04/15 02:45:48;;;;;;;1.75;0.80;;;23.70;35.80;;;;;;5085226;28;20043;-60
2021/04/15 02:48:26;;;;;;;0.77;0.60;;;23.70;35.80;;;;;;5084935;28;20032;-60
2021/04/15 02:50:57;;;;;;;0.52;0.52;;;23.70;35.80;;;;;;5071191;28;20059;-60
2021/04/15 02:53:33;;;;;;;0.50;0.50;;;23.70;35.80;;;;;;5081468;28;20064;-60
2021/04/15 02:56:23;;;;;;;0.50;0.50;;;23.70;35.80;;;;;;5084920;28;20060;-60
2021/04/15 02:59:13;;;;;;;0.80;0.60;;;23.70;35.80;;;;;;5080546;28;20096;-59
2021/04/15 03:01:44;;;;;;;0.75;0.50;;;23.70;35.80;;;;;;5072885;28;20044;-60
2021/04/15 03:04:15;;;;;;;1.15;0.60;;;23.70;35.90;;;;;;5085469;28;20142;-60
2021/04/15 03:06:42;;;;;;;1.05;0.60;;;23.60;35.90;;;;;;5085297;28;20434;-61
2021/04/15 03:09:10;;;;;;;0.98;0.60;;;23.60;35.80;;;;;;5082126;28;20085;-61
2021/04/15 03:11:52;;;;;;;0.70;0.60;;;23.70;35.90;;;;;;5082229;28;20226;-60
2021/04/15 03:14:44;;;;;;;0.73;0.60;;;23.60;35.80;;;;;;5084191;28;20032;-60
2021/04/15 03:17:11;;;;;;;0.60;0.50;;;23.60;35.80;;;;;;5083555;28;20207;-60
2021/04/15 03:19:41;;;;;;;0.50;0.50;;;23.60;35.80;;;;;;5084596;28;20028;-61
2021/04/15 03:22:12;;;;;;;;;;;23.60;35.90;;;;;;5085692;28;20035;-60
2021/04/15 03:24:44;;;;;;;1.02;0.80;;;23.60;35.80;;;;;;5078507;28;20382;-60
2021/04/15 03:27:13;;;;;;;0.63;0.60;;;23.60;35.90;;;;;;5084732;28;20866;-60
2021/04/15 03:29:48;;;;;;;1.65;0.65;;;23.60;35.90;;;;;;5085269;28;20032;-61
2021/04/15 03:32:24;;;;;;;0.55;0.50;;;23.60;35.90;;;;;;5082724;28;20435;-60
2021/04/15 03:35:03;;;;;;;0.80;0.57;;;23.60;35.90;;;;;;5082893;28;20097;-59
2021/04/15 03:37:54;;;;;;;0.77;0.60;;;23.60;35.90;;;;;;5094935;28;20427;-60
2021/04/15 03:40:23;;;;;;;1.42;0.60;;;23.60;35.90;;;;;;5084264;28;20036;-58
2021/04/15 03:42:54;;;;;;;1.50;0.68;;;23.60;35.90;;;;;;5079680;28;20032;-60
2021/04/15 03:45:27;;;;;;;0.52;0.50;;;23.60;35.90;;;;;;5084596;28;20162;-61
2021/04/15 03:48:07;;;;;;;1.02;0.63;;;23.60;35.90;;;;;;5080921;28;20151;-58
2021/04/15 03:50:53;;;;;;;0.50;0.50;;;23.50;35.90;;;;;;5083981;28;20094;-61
2021/04/15 03:53:25;;;;;;;0.70;0.50;;;23.50;35.90;;;;;;5076555;28;20040;-60
2021/04/15 03:55:58;;;;;;;0.90;0.60;;;23.60;36.00;;;;;;5077968;28;20414;-60
2021/04/15 03:58:36;;;;;;;0.82;0.60;;;23.50;35.90;;;;;;5082169;28;20039;-59
2021/04/15 04:01:21;;;;;;;0.63;0.52;;;23.50;35.90;;;;;;5082177;28;20054;-59
2021/04/15 04:04:02;;;;;;;0.60;0.50;;;23.50;35.90;;;;;;5077727;28;20032;-61
2021/04/15 04:06:29;;;;;;;0.50;0.50;;;23.50;35.90;;;;;;5082157;28;20036;-61
2021/04/15 04:09:05;;;;;;;0.77;0.60;;;23.60;36.00;;;;;;5082212;28;20539;-61
2021/04/15 04:11:35;;;;;;;0.60;0.60;;;23.50;36.00;;;;;;5084049;28;20040;-61
2021/04/15 04:14:24;;;;;;;0.60;0.57;;;23.50;36.00;;;;;;5080401;28;20024;-61
2021/04/15 04:17:04;;;;;;;0.90;0.60;;;23.50;36.00;;;;;;5075806;28;20083;-61
2021/04/15 04:19:43;;;;;;;0.70;0.50;;;23.50;36.10;;;;;;5079411;28;20503;-61
2021/04/15 04:22:31;;;;;;;1.05;0.60;;;23.50;36.10;;;;;;5082952;28;20042;-60
2021/04/15 04:24:59;;;;;;;1.17;0.63;;;23.50;36.10;;;;;;5075071;28;20032;-60
2021/04/15 04:27:33;;;;;;;1.30;0.70;;;23.50;36.10;;;;;;5091671;28;20446;-60
2021/04/15 04:30:06;;;;;;;1.02;0.70;;;23.50;36.10;;;;;;5084026;28;20036;-59
2021/04/15 04:32:32;;;;;;;1.70;0.70;;;23.50;36.20;;;;;;5083034;28;20043;-59
2021/04/15 04:35:00;;;;;;;1.00;0.70;;;23.50;36.20;;;;;;5084220;28;20714;-61
2021/04/15 04:37:38;;;;;;;0.90;0.60;;;23.50;36.20;;;;;;5084032;28;20050;-60
2021/04/15 04:40:13;;;;;;;2.38;0.80;;;23.50;36.30;;;;;;5081914;28;20028;-60
2021/04/15 04:42:51;;;;;;;1.35;0.80;;;23.50;36.30;;;;;;5075273;28;20135;-61
2021/04/15 04:45:19;;;;;;;2.22;0.60;;;23.50;36.30;;;;;;5084020;28;20042;-61
2021/04/15 04:48:07;;;;;;;1.73;0.73;;;23.50;36.30;;;;;;5082757;28;20044;-61
2021/04/15 04:50:47;;;;;;;1.05;0.60;;;23.50;36.30;;;;;;5079388;28;20032;-59
2021/04/15 04:53:29;;;;;;;1.75;0.60;;;23.50;36.40;;;;;;5081841;28;20085;-60
2021/04/15 04:56:08;;;;;;;1.05;0.77;;;23.50;36.40;;;;;;5075474;28;20086;-60
2021/04/15 04:58:38;;;;;;;1.90;0.80;;;23.50;36.40;;;;;;5082952;28;20044;-60
2021/04/15 05:01:06;;;;;;;1.38;0.70;;;23.50;36.40;;;;;;5057803;28;20048;-60
2021/04/15 05:03:33;;;;;;;1.67;0.70;;;23.40;36.40;;;;;;5076500;28;20031;-60
2021/04/15 05:06:06;;;;;;;1.10;0.60;;;23.40;36.40;;;;;;5081619;28;20595;-60
2021/04/15 05:09:01;;;;;;;1.75;0.70;;;23.50;36.40;;;;;;5082460;28;20020;-59
2021/04/15 05:11:37;;;;;;;1.20;0.80;;;23.50;36.40;;;;;;5079300;28;20032;-60
2021/04/15 05:14:05;;;;;;;1.23;0.70;;;23.40;36.40;;;;;;5080085;28;20080;-60
2021/04/15 05:16:53;;;;;;;1.40;0.70;;;23.40;36.40;;;;;;5078090;28;20050;-60
2021/04/15 05:19:19;;;;;;;1.45;0.70;;;23.50;36.50;;;;;;5081361;28;20036;-60
2021/04/15 05:21:47;;;;;;;1.38;0.70;;;23.50;36.50;;;;;;5065091;28;20039;-60
2021/04/15 05:24:26;;;;;;;1.70;0.70;;;23.40;36.40;;;;;;5085197;28;20470;-60
2021/04/15 05:26:53;;;;;;;2.03;0.80;;;23.40;36.40;;;;;;5085853;28;20031;-60
2021/04/15 05:29:28;;;;;;;1.65;0.80;;;23.40;36.40;;;;;;5086697;28;20104;-59
2021/04/15 05:31:55;;;;;;;0.73;0.60;;;23.40;36.40;;;;;;5085028;28;20048;-60
2021/04/15 05:34:40;;;;;;;1.98;0.80;;;23.50;36.50;;;;;;5085847;28;20020;-60
2021/04/15 05:37:14;;;;;;;1.38;0.70;;;23.40;36.40;;;;;;5083685;28;20525;-60
2021/04/15 05:39:40;;;;;;;1.50;0.80;;;23.50;36.50;;;;;;5085959;28;20048;-60
2021/04/15 05:42:12;;;;;;;2.80;0.80;;;23.50;36.50;;;;;;5089066;28;20070;-59
2021/04/15 05:44:59;;;;;;;2.25;0.80;;;23.50;36.40;;;;;;5090016;28;20497;-60
2021/04/15 05:47:29;;;;;;;1.70;0.70;;;23.60;36.40;;;;;;5088817;28;20039;-60
2021/04/15 05:50:06;;;;;;;1.55;0.82;;;23.60;36.40;;;;;;5090447;28;20036;-60
2021/04/15 05:52:39;;;;;;;6.80;0.77;;;23.60;36.40;;;;;;5088765;28;20038;-59
2021/04/15 05:55:11;;;;;;;1.88;0.95;;;23.60;36.40;;;;;;5092233;28;20030;-60
2021/04/15 05:57:45;;;;;;;2.63;0.90;;;23.60;36.40;;;;;;5072700;28;20479;-59
2021/04/15 06:00:21;;;;;;;1.92;0.75;;;23.70;36.40;;;;;;5085785;28;20036;-59
2021/04/15 06:02:51;;;;;;;2.63;0.70;;;23.70;36.40;;;;;;5079788;28;20423;-60
2021/04/15 06:05:27;;;;;;;1.77;0.70;;;23.70;36.40;;;;;;5087200;28;20366;-60
2021/04/15 06:07:56;;;;;;;2.17;0.98;;;23.70;36.40;;;;;;5083651;28;20036;-59
2021/04/15 06:10:27;;;;;;;3.72;1.45;;;23.70;36.40;;;;;;5086219;28;20042;-60
2021/04/15 06:13:01;;;;;;;1.63;0.73;;;23.80;36.40;;;;;;5085191;28;20060;-59
2021/04/15 06:15:32;;;;;;;1.08;0.60;;;23.80;36.40;;;;;;5085764;28;20024;-60
2021/04/15 06:18:32;;;;;;;2.00;1.00;;;23.80;36.40;;;;;;5056623;28;20082;-60
2021/04/15 06:21:22;;;;;;;2.30;0.80;;;23.90;36.40;;;;;;5083497;28;20032;-60
2021/04/15 06:24:02;;;;;;;1.42;0.90;;;23.90;36.30;;;;;;5085097;28;20032;-60
2021/04/15 06:26:39;;;;;;;1.42;0.70;;;23.90;36.30;;;;;;5086035;28;20020;-60
2021/04/15 06:29:09;;;;;;;1.48;0.65;;;23.90;36.30;;;;;;5086181;28;20043;-60
2021/04/15 06:31:41;;;;;;;1.85;0.90;;;23.90;36.20;;;;;;5083832;28;20039;-60
2021/04/15 06:34:09;;;;;;;2.45;0.82;;;24.00;36.30;;;;;;5084042;28;20222;-60
2021/04/15 06:36:37;;;;;;;1.75;0.77;;;24.00;36.30;;;;;;5077903;28;20083;-60
2021/04/15 06:39:29;;;;;;;1.17;0.60;;;24.00;36.30;;;;;;5083390;28;20043;-60
2021/04/15 06:42:19;;;;;;;1.42;0.65;;;24.00;36.30;;;;;;5083030;28;20101;-60
2021/04/15 06:45:22;;;;;;;1.17;0.73;;;24.10;36.30;;;;;;5082915;28;20046;-59
2021/04/15 06:48:08;;;;;;;1.55;0.70;;;24.10;36.40;;;;;;5076331;28;20084;-60
2021/04/15 06:51:11;;;;;;;1.88;0.82;;;24.10;36.30;;;;;;5078284;28;20035;-60
2021/04/15 06:54:08;;;;;;;1.70;0.73;;;24.20;36.40;;;;;;5068972;28;20102;-59
2021/04/15 06:56:46;;;;;;;1.23;0.68;;;24.20;36.30;;;;;;5079366;28;20502;-60
2021/04/15 06:59:40;;;;;;;1.30;0.70;;;24.20;36.60;;;;;;5085241;28;20024;-56
2021/04/15 07:02:30;;;;;;;2.72;0.90;;;24.20;36.30;;;;;;5069387;28;20828;-60
2021/04/15 07:05:30;;;;;;;1.52;0.73;;;24.20;36.30;;;;;;5067557;28;20024;-59
2021/04/15 07:08:30;;;;;;;2.28;0.70;;;24.30;36.20;;;;;;5039227;28;20094;-59
2021/04/15 07:11:41;;;;;;;1.27;0.70;;;24.30;36.30;;;;;;5067984;28;20043;-60
2021/04/15 07:14:32;;;;;;;1.55;0.80;;;24.30;36.30;;;;;;5053569;28;20033;-59
2021/04/15 07:17:09;;;;;;;2.20;0.80;;;24.30;36.20;;;;;;5064382;28;20039;-59
2021/04/15 07:19:56;;;;;;;2.05;1.00;;;24.30;36.20;;;;;;5053312;28;20426;-60
2021/04/15 07:22:59;;;;;;;1.38;0.80;;;24.40;36.20;;;;;;5059800;28;20114;-60
2021/04/15 07:26:04;;;;;;;1.45;0.70;;;24.40;36.20;;;;;;5055220;28;20402;-59
2021/04/15 07:28:54;;;;;;;1.75;0.80;;;24.40;36.10;;;;;;5046245;28;20110;-60
2021/04/15 07:31:32;;;;;;;2.42;0.90;;;24.40;36.10;;;;;;5058870;28;20041;-60
2021/04/15 07:34:34;;;;;;;1.80;0.80;;;24.40;36.10;;;;;;5063834;28;20031;-59
2021/04/15 07:37:32;;;;;;;1.65;0.73;;;24.50;36.10;;;;;;5062855;28;20032;-59
2021/04/15 07:40:16;;;;;;;1.63;0.80;;;24.50;36.10;;;;;;5055525;28;20127;-58
2021/04/15 07:42:51;;;;;;;1.52;0.90;;;24.50;36.10;;;;;;5061158;28;20031;-57
2021/04/15 07:45:19;;;;;;;2.05;0.90;;;24.50;36.10;;;;;;5051981;28;20069;-59
2021/04/15 07:48:00;;;;;;;1.27;0.73;;;24.60;36.10;;;;;;5061225;28;20422;-61
2021/04/15 07:50:50;;;;;;;2.08;0.80;;;24.60;36.10;;;;;;5062042;28;20097;-59
2021/04/15 07:53:31;;;;;;;1.83;0.77;;;24.60;36.10;;;;;;5071017;28;20032;-59
2021/04/15 07:56:22;;;;;;;2.35;0.68;;;24.60;36.10;;;;;;5056503;28;20551;-60
2021/04/15 07:59:08;;;;;;;3.22;1.00;;;24.60;36.10;;;;;;5064151;28;20031;-59
2021/04/15 08:02:02;;;;;;;1.58;0.73;;;24.60;36.10;;;;;;5054930;28;20568;-60
2021/04/15 08:04:51;;;;;;;0.88;0.57;;;24.70;36.20;;;;;;5062668;28;20455;-59
2021/04/15 08:07:57;;;;;;;1.73;0.80;;;24.70;36.10;;;;;;5042450;28;20048;-59
2021/04/15 08:10:31;;;;;;;1.35;0.70;;;24.70;36.10;;;;;;5063477;28;20116;-59
2021/04/15 08:13:30;;;;;;;2.05;0.80;;;24.70;36.10;;;;;;5062860;28;20036;-59
2021/04/15 08:16:13;;;;;;;1.20;0.70;;;24.70;36.10;;;;;;5065218;28;20082;-59
2021/04/15 08:18:58;;;;;;;1.15;0.80;;;24.80;36.10;;;;;;5057629;28;20554;-59
2021/04/15 08:21:45;;;;;;;1.10;0.70;;;24.80;36.10;;;;;;5051113;28;20026;-58
2021/04/15 08:24:35;;;;;;;0.70;0.60;;;24.80;36.70;;;;;;5063086;28;20035;-59
2021/04/15 08:27:35;;;;;;;2.35;0.80;;;24.80;36.10;;;;;;5063336;28;20047;-59
2021/04/15 08:30:31;;;;;;;1.85;0.70;;;24.80;36.10;;;;;;5053027;28;20128;-59
2021/04/15 08:33:20;;;;;;;1.13;0.80;;;24.80;36.10;;;;;;5082027;28;20036;-58
2021/04/15 08:36:08;;;;;;;1.42;0.80;;;24.90;36.20;;;;;;5084833;28;20050;-59
2021/04/15 08:38:59;;;;;;;1.70;0.80;;;24.90;36.20;;;;;;5083957;28;20042;-59
2021/04/15 08:41:51;;;;;;;1.05;0.70;;;24.90;36.20;;;;;;5068222;28;20071;-59
2021/04/15 08:44:54;;;;;;;1.17;0.77;;;24.90;36.20;;;;;;5063814;28;20448;-58
2021/04/15 08:47:54;;;;;;;1.15;0.70;;;24.90;36.20;;;;;;5076612;28;20024;-58
2021/04/15 08:50:42;;;;;;;1.70;0.70;;;25.00;36.20;;;;;;5078485;28;20024;-59
2021/04/15 08:53:33;;;;;;;1.20;0.65;;;24.90;36.10;;;;;;5086000;28;20027;-59
2021/04/15 08:56:14;;;;;;;1.23;0.80;;;25.00;36.20;;;;;;5083700;28;20021;-59
2021/04/15 08:59:14;;;;;;;1.35;0.80;;;25.00;36.20;;;;;;5078549;28;20028;-59
2021/04/15 09:02:05;;;;;;;1.73;0.90;;;25.00;36.20;;;;;;5071061;28;20145;-59
2021/04/15 09:04:57;;;;;;;1.30;0.70;;;25.00;36.20;;;;;;5076100;28;20755;-59
2021/04/15 09:07:34;;;;;;;1.35;0.70;;;25.00;36.20;;;;;;5086837;28;20032;-59
2021/04/15 09:10:28;;;;;;;1.15;0.70;;;25.10;36.40;;;;;;5086154;28;20476;-59
2021/04/15 09:13:12;;;;;;;1.55;0.80;;;25.10;36.30;;;;;;5086326;28;20124;-59
2021/04/15 09:15:52;;;;;;;1.23;0.70;;;25.10;36.40;;;;;;5087210;28;20034;-59
2021/04/15 09:18:34;;;;;;;1.13;0.77;;;25.10;36.30;;;;;;5083535;28;20149;-59
2021/04/15 09:21:31;;;;;;;0.90;0.65;;;25.10;36.30;;;;;;5079510;28;20106;-60
2021/04/15 09:24:45;;;;;;;1.13;0.60;;;25.20;36.40;;;;;;5082156;28;20049;-59
2021/04/15 09:27:26;;;;;;;1.52;0.70;;;25.20;36.40;;;;;;5084067;28;20047;-60
2021/04/15 09:30:16;;;;;;;2.15;0.80;;;25.20;36.40;;;;;;5086512;28;20097;-59
2021/04/15 09:33:09;;;;;;;2.33;0.80;;;25.20;36.40;;;;;;5085423;28;20092;-59
2021/04/15 09:35:37;;;;;;;1.33;0.70;;;25.20;36.30;;;;;;5086767;28;20135;-60
2021/04/15 09:38:27;;;;;;;1.23;0.77;;;25.30;36.40;;;;;;5086580;28;20024;-59
2021/04/15 09:41:18;;;;;;;1.23;0.70;;;25.30;36.30;;;;;;5086402;28;20312;-60
2021/04/15 09:43:43;;;;;;;1.40;0.80;;;25.30;36.30;;;;;;5085451;28;20389;-60
2021/04/15 09:46:28;;;;;;;1.90;0.80;;;25.20;36.20;;;;;;5086773;28;20039;-59
2021/04/15 09:49:18;;;;;;;3.10;0.80;;;25.30;36.20;;;;;;5084670;28;20802;-58
2021/04/15 09:52:09;;;;;;;1.00;0.68;;;25.30;36.30;;;;;;5085262;28;20127;-59
2021/04/15 09:54:48;;;;;;;1.55;0.88;;;25.30;36.30;;;;;;5085377;28;20039;-59
2021/04/15 09:57:32;;;;;;;;;;;25.30;36.30;;;;;;5071985;28;20036;-59
2021/04/15 10:00:17;;;;;;;1.15;0.70;;;25.30;36.30;;;;;;5085066;28;20010;-59
2021/04/15 10:02:59;;;;;;;1.52;0.80;;;25.30;36.30;;;;;;5082767;28;20427;-58
2021/04/15 10:06:03;;;;;;;1.23;0.80;;;25.30;36.30;;;;;;5081564;28;20036;-59
2021/04/15 10:08:46;;;;;;;0.95;0.73;;;25.30;36.20;;;;;;5102224;28;20315;-59
2021/04/15 10:11:27;;;;;;;1.90;0.70;;;25.30;36.20;;;;;;5082920;28;20039;-59
2021/04/15 10:13:55;;;;;;;0.80;0.60;;;25.30;36.20;;;;;;5084380;28;20039;-60
2021/04/15 10:16:23;;;;;;;1.73;0.70;;;25.40;36.30;;;;;;5081414;28;20028;-59
2021/04/15 10:19:32;;;;;;;0.97;0.60;;;25.40;36.20;;;;;;5087138;28;20765;-59
2021/04/15 10:22:22;;;;;;;1.00;0.63;;;25.40;36.20;;;;;;5079650;28;20102;-59
2021/04/15 10:24:51;;;;;;;1.17;0.70;;;25.40;36.20;;;;;;5084911;28;20055;-59
2021/04/15 10:27:49;;;;;;;1.00;0.70;;;25.40;36.30;;;;;;5084909;28;20031;-59
2021/04/15 10:30:38;;;;;;;1.40;0.70;;;25.40;36.30;;;;;;5078632;28;20160;-58
2021/04/15 10:33:37;;;;;;;1.90;0.68;;;25.50;36.30;;;;;;5046375;28;20105;-59
2021/04/15 10:36:09;;;;;;;;;;;25.50;36.20;;;;;;5079430;28;20046;-59
2021/04/15 10:39:08;;;;;;;1.05;0.63;;;25.50;36.20;;;;;;5075859;28;19958;-60
2021/04/15 10:41:49;;;;;;;1.42;0.70;;;25.50;36.20;;;;;;5064642;28;20129;-60
2021/04/15 10:44:29;;;;;;;1.42;0.80;;;25.50;36.20;;;;;;5084451;28;20035;-60
2021/04/15 10:47:07;;;;;;;1.17;0.60;;;25.50;36.10;;;;;;5081191;28;20099;-60
2021/04/15 10:49:39;;;;;;;1.65;0.70;;;25.50;36.10;;;;;;5085559;28;20171;-59
2021/04/15 10:52:42;;;;;;;1.23;0.70;;;25.50;36.10;;;;;;5084807;28;20531;-60
2021/04/15 10:55:33;;;;;;;0.90;0.60;;;25.60;36.20;;;;;;5084537;28;20020;-59
2021/04/15 10:58:29;;;;;;;1.15;0.70;;;25.60;36.30;;;;;;5083957;28;20036;-60
2021/04/15 11:00:56;;;;;;;1.23;0.75;;;25.60;36.20;;;;;;5070582;28;20117;-60
2021/04/15 11:03:25;;;;;;;1.38;0.90;;;25.60;36.10;;;;;;5083832;28;20153;-59
2021/04/15 11:05:56;;;;;;;1.42;0.68;;;25.60;36.30;;;;;;5086738;28;20028;-59
2021/04/15 11:08:24;;;;;;;1.25;0.77;;;25.60;36.00;;;;;;5091712;28;20032;-60
2021/04/15 11:11:06;;;;;;;1.95;0.80;;;25.60;36.00;;;;;;5093493;28;20087;-59
2021/04/15 11:13:33;;;;;;;1.77;0.73;;;25.60;36.00;;;;;;5091151;28;20078;-59
2021/04/15 11:16:01;;;;;;;0.90;0.70;;;25.60;36.00;;;;;;5092085;28;20132;-60
2021/04/15 11:18:28;;;;;;;1.27;0.68;;;25.60;36.10;;;;;;5082081;28;20020;-60
2021/04/15 11:21:30;;;;;;;1.20;0.70;;;25.70;36.20;;;;;;5092441;28;20032;-59
2021/04/15 11:24:28;;;;;;;1.55;0.80;;;25.70;36.10;;;;;;5091480;28;20064;-59
2021/04/15 11:27:03;;;;;;;1.23;0.80;;;25.70;36.70;;;;;;5092998;28;20339;-61
2021/04/15 11:29:46;;;;;;;1.05;0.75;;;25.70;36.10;;;;;;5084390;28;20138;-61
2021/04/15 11:32:21;;;;;;;2.90;0.80;;;25.70;36.20;;;;;;5083350;28;20619;-60
2021/04/15 11:35:09;;;;;;;1.40;0.60;;;25.70;36.10;;;;;;5085340;28;20097;-61
2021/04/15 11:37:38;;;;;;;1.02;0.70;;;25.70;36.20;;;;;;5089272;28;20128;-61
2021/04/15 11:40:18;;;;;;;0.70;0.60;;;25.70;36.20;;;;;;5086592;28;20051;-61
2021/04/15 11:42:44;;;;;;;1.00;0.60;;;25.70;36.20;;;;;;5079884;28;20024;-60
2021/04/15 11:45:23;;;;;;;1.55;0.70;;;25.80;36.30;;;;;;5093311;28;20040;-61
2021/04/15 11:47:49;;;;;;;0.77;0.52;;;25.80;36.30;;;;;;5090400;28;20032;-60
2021/04/15 11:50:20;;;;;;;1.50;0.70;;;25.80;36.30;;;;;;5093995;28;20371;-60
2021/04/15 11:52:47;;;;;;;1.25;0.80;;;25.80;36.30;;;;;;5085868;28;20036;-59
2021/04/15 11:55:14;;;;;;;1.52;0.75;;;25.80;36.30;;;;;;5077353;28;20040;-60
2021/04/15 11:57:41;;;;;;;1.42;0.70;;;25.80;36.40;;;;;;5088874;28;20097;-60
2021/04/15 12:00:21;;;;;;;0.68;0.50;;;25.80;36.40;;;;;;5083370;28;20028;-61
2021/04/15 12:02:49;;;;;;;;;;;25.90;36.50;;;;;;5091090;28;20107;-61
2021/04/15 12:05:37;;;;;;;1.38;0.68;;;25.90;36.50;;;;;;5073201;28;19912;-61
2021/04/15 12:08:25;;;;;;;0.68;0.50;;;25.90;36.50;;;;;;5081469;28;20036;-60
2021/04/15 12:11:13;;;;;;;1.90;0.80;;;25.90;36.40;;;;;;5079830;28;20562;-60
2021/04/15 12:13:47;;;;;;;1.30;0.65;;;25.90;36.50;;;;;;5085624;28;20043;-61
2021/04/15 12:16:25;;;;;;;1.65;0.80;;;25.90;36.60;;;;;;5094811;28;20031;-60
2021/04/15 12:18:54;;;;;;;1.27;0.60;;;26.00;36.60;;;;;;5073066;28;20217;-60
2021/04/15 12:21:35;;;;;;;;;;;26.00;36.50;;;;;;5083818;28;20046;-60
2021/04/15 12:24:26;;;;;;;1.27;0.63;;;26.00;36.60;;;;;;5076714;28;19962;-60
2021/04/15 12:27:02;;;;;;;1.00;0.57;;;26.00;36.50;;;;;;5074485;28;20454;-60
2021/04/15 12:29:50;;;;;;;1.00;0.70;;;26.00;36.60;;;;;;5085892;28;20394;-60
2021/04/15 12:32:33;;;;;;;2.55;0.68;;;26.00;36.60;;;;;;5082214;28;20173;-60
2021/04/15 12:35:11;;;;;;;1.33;0.60;;;26.00;36.60;;;;;;5089518;28;20091;-60
2021/04/15 12:37:42;;;;;;;1.80;0.80;;;26.10;36.60;;;;;;5083265;28;20020;-59
2021/04/15 12:40:29;;;;;;;2.35;0.60;;;26.00;36.60;;;;;;5078711;28;20273;-58
2021/04/15 12:42:59;;;;;;;1.52;0.75;;;26.10;36.60;;;;;;5081622;28;20039;-60
2021/04/15 12:45:36;;;;;;;1.08;0.50;;;26.10;36.60;;;;;;5088178;28;20181;-59
2021/04/15 12:48:05;;;;;;;1.52;0.60;;;26.10;36.70;;;;;;5083738;28;20089;-56
2021/04/15 12:50:31;;;;;;;1.65;0.70;;;26.10;36.80;;;;;;5080634;28;20106;-58
2021/04/15 12:52:58;;;;;;;0.80;0.60;;;26.10;36.70;;;;;;5094623;28;20028;-61
2021/04/15 12:55:26;;;;;;;1.88;0.80;;;26.20;36.80;;;;;;5086688;28;20020;-57
2021/04/15 12:57:52;;;;;;;2.15;0.73;;;26.10;36.70;;;;;;5092520;28;20027;-58
2021/04/15 13:00:25;;;;;;;0.80;0.60;;;26.20;36.80;;;;;;5089617;28;20038;-56
2021/04/15 13:02:51;;;;;;;1.45;0.80;;;26.20;36.70;;;;;;5074815;28;20075;-55
2021/04/15 13:05:32;;;;;;;1.15;0.60;;;26.20;36.70;;;;;;5093660;28;20031;-53
2021/04/15 13:08:33;;;;;;;1.92;0.70;;;26.20;36.70;;;;;;5091331;28;20035;-53
2021/04/15 13:11:07;;;;;;;1.13;0.65;;;26.20;36.70;;;;;;5081630;28;20031;-53
2021/04/15 13:13:45;;;;;;;1.92;0.70;;;26.20;36.60;;;;;;5091257;28;20039;-54
2021/04/15 13:16:35;;;;;;;1.35;0.50;;;26.20;36.60;;;;;;5093282;28;20031;-58
2021/04/15 13:19:24;;;;;;;1.35;0.60;;;26.20;36.60;;;;;;5089367;28;20027;-57
2021/04/15 13:22:01;;;;;;;1.15;0.70;;;26.20;36.60;;;;;;5094039;28;20441;-55
2021/04/15 13:24:48;;;;;;;1.00;0.60;;;26.30;36.60;;;;;;5091768;28;20576;-58
2021/04/15 13:27:32;;;;;;;2.25;0.70;;;26.30;36.50;;;;;;5095615;28;20062;-52
2021/04/15 13:30:19;;;;;;;1.48;0.70;;;26.30;36.60;;;;;;5095394;28;20028;-56
2021/04/15 13:33:23;;;;;;;1.67;0.80;;;26.20;36.50;;;;;;5088537;28;20036;-56
2021/04/15 13:35:59;;;;;;;0.75;0.60;;;26.30;36.50;;;;;;5089926;28;20093;-55
2021/04/15 13:38:45;;;;;;;2.15;0.80;;;26.30;36.50;;;;;;5090428;28;20052;-54
2021/04/15 13:41:26;;;;;;;1.83;0.80;;;26.30;36.50;;;;;;5085490;28;20545;-56
2021/04/15 13:43:56;;;;;;;1.15;0.60;;;26.30;36.60;;;;;;5090864;28;20545;-53
2021/04/15 13:46:23;;;;;;;1.60;0.70;;;26.30;36.50;;;;;;5093650;28;20048;-56
2021/04/15 13:49:02;;;;;;;1.17;0.60;;;26.30;36.50;;;;;;5093928;28;20050;-55
2021/04/15 13:51:32;;;;;;;0.98;0.60;;;26.30;36.60;;;;;;5094652;28;20020;-52